Time;durP1;ratioP1;P1;durP2;ratioP2;P2;SDS_P1;SDS_P2;PMS_P1;PMS_P2;Temp;Humidity;BMP_temperature;BMP_pressure;BME280_temperature;BME280_humidity;BME280_pressure;Samples;Min_cycle;Max_cycle;Signal;HPM_P1;HPM_P2
2023/01/29 00:02:18;;;;;;;26.52;14.13;;;;;;;-1.30;85.93;95323.22;4991892;28;20140;-75
2023/01/29 00:04:43;;;;;;;30.45;13.82;;;;;;;-1.48;86.05;95289.94;5009766;28;20049;-74
2023/01/29 00:07:08;;;;;;;24.30;11.88;;;;;;;-1.13;86.10;95342.66;4992232;28;20034;-74
2023/01/29 00:09:34;;;;;;;28.98;13.75;;;;;;;-1.18;85.90;95343.25;5010250;28;20025;-75
2023/01/29 00:11:59;;;;;;;30.10;14.20;;;;;;;-1.34;86.61;95321.97;4992221;28;20036;-74
2023/01/29 00:14:26;;;;;;;26.95;13.55;;;;;;;-1.22;85.97;95329.00;4992282;28;20029;-74
2023/01/29 00:16:52;;;;;;;30.00;14.10;;;;;;;-1.68;86.27;95266.44;5010277;28;20026;-74
2023/01/29 00:19:18;;;;;;;30.23;14.10;;;;;;;-1.09;85.94;95364.69;4999207;28;20512;-74
2023/01/29 00:21:44;;;;;;;39.97;17.25;;;;;;;-1.79;86.10;95235.81;4972726;28;20085;-74
2023/01/29 00:24:10;;;;;;;26.17;12.68;;;;;;;-1.56;85.94;95290.09;4990085;28;20416;-74
2023/01/29 00:26:37;;;;;;;23.90;12.77;;;;;;;-1.08;86.41;95361.09;4987991;28;20096;-74
2023/01/29 00:29:03;;;;;;;26.27;13.70;;;;;;;-1.31;86.43;95335.41;4992043;28;20030;-74
2023/01/29 00:31:29;;;;;;;29.48;14.63;;;;;;;-1.15;86.65;95359.47;4994425;28;20030;-74
2023/01/29 00:33:54;;;;;;;35.83;17.00;;;;;;;-1.35;86.47;95334.19;4993739;28;20026;-74
2023/01/29 00:36:21;;;;;;;27.60;14.75;;;;;;;-1.32;86.65;95344.22;4994206;28;20852;-73
2023/01/29 00:38:53;;;;;;;32.20;15.38;;;;;;;-1.14;86.73;95369.66;4994333;28;20136;-74
2023/01/29 00:46:49;;;;;;;32.67;15.10;;;;;;;-1.95;86.75;95243.97;4994834;28;20112;-74
2023/01/29 00:49:15;;;;;;;29.75;14.50;;;;;;;-1.71;86.72;95259.06;4993418;28;20037;-73
2023/01/29 00:51:40;;;;;;;26.98;14.23;;;;;;;-1.58;86.99;95294.69;4992722;28;20030;-73
2023/01/29 00:54:06;;;;;;;28.20;14.45;;;;;;;-1.63;86.74;95284.88;4978187;28;20041;-73
2023/01/29 00:56:34;;;;;;;28.73;13.25;;;;;;;-1.88;87.03;95241.38;4994278;28;20038;-74
2023/01/29 00:58:59;;;;;;;26.77;13.70;;;;;;;-1.14;87.29;95358.47;4993860;28;20096;-74
2023/01/29 01:04:10;;;;;;;27.40;14.55;;;;;;;-1.22;87.43;95367.25;5012493;28;20752;-76
2023/01/29 01:06:39;;;;;;;28.00;14.13;;;;;;;-1.25;87.63;95363.25;5012991;28;20427;-75
2023/01/29 01:11:50;;;;;;;26.67;14.00;;;;;;;-1.76;87.78;95282.25;5005325;28;20060;-75
2023/01/29 01:14:16;;;;;;;27.45;13.32;;;;;;;-1.22;87.87;95362.06;4994483;28;20032;-75
2023/01/29 01:16:44;;;;;;;30.85;14.75;;;;;;;-1.20;87.63;95368.66;4994856;28;20121;-75
2023/01/29 01:19:09;;;;;;;25.92;14.32;;;;;;;-1.26;87.06;95356.44;4994395;28;20095;-75
2023/01/29 01:21:35;;;;;;;28.73;13.70;;;;;;;-2.03;87.34;95236.34;4994333;28;20030;-76
2023/01/29 01:24:00;;;;;;;35.78;15.45;;;;;;;-1.58;87.48;95299.88;5012256;28;20029;-75
2023/01/29 01:26:26;;;;;;;29.13;14.05;;;;;;;-1.26;87.31;95348.63;4995048;28;20053;-75
2023/01/29 01:28:52;;;;;;;21.23;11.80;;;;;;;-1.86;87.22;95255.81;4994890;28;20029;-76
2023/01/29 01:31:17;;;;;;;24.50;12.70;;;;;;;-1.74;87.75;95308.84;4994511;28;20022;-75
2023/01/29 01:33:43;;;;;;;26.95;14.40;;;;;;;-1.38;87.60;95365.81;5012159;28;20480;-75
2023/01/29 01:36:08;;;;;;;25.88;12.48;;;;;;;-1.36;87.64;95352.59;5012475;28;20022;-75
2023/01/29 01:38:43;;;;;;;27.98;13.43;;;;;;;-1.77;87.73;95300.63;4994722;28;20030;-75
2023/01/29 01:41:09;;;;;;;25.80;13.02;;;;;;;-2.08;88.00;95259.50;4993779;28;20172;-75
2023/01/29 01:44:00;;;;;;;26.52;13.25;;;;;;;-1.38;88.08;95357.19;4992892;28;20180;-75
2023/01/29 01:46:32;;;;;;;25.70;13.18;;;;;;;-1.79;88.04;95281.81;4994428;28;20091;-76
2023/01/29 01:49:12;;;;;;;26.80;13.82;;;;;;;-1.50;88.27;95324.94;5011842;28;20030;-75
2023/01/29 01:51:45;;;;;;;23.75;12.98;;;;;;;-1.47;88.42;95338.34;5011441;28;20511;-75
2023/01/29 01:54:19;;;;;;;22.27;11.48;;;;;;;-1.41;87.82;95352.38;5011704;28;20049;-75
2023/01/29 01:56:51;;;;;;;27.45;12.85;;;;;;;-1.89;88.51;95289.97;4994426;28;20049;-75
2023/01/29 01:59:18;;;;;;;23.85;11.93;;;;;;;-2.00;88.23;95260.16;5011932;28;20488;-75
2023/01/29 02:01:50;;;;;;;25.38;12.88;;;;;;;-1.78;87.76;95309.44;5011590;28;20038;-75
2023/01/29 02:10:15;;;;;;;27.50;14.18;;;;;;;-1.27;88.74;95370.44;5011787;28;20041;-75
2023/01/29 02:12:43;;;;;;;26.50;12.75;;;;;;;-1.39;88.59;95351.19;5011231;28;20045;-75
2023/01/29 02:15:08;;;;;;;25.20;13.27;;;;;;;-1.70;88.77;95296.25;5001167;28;20141;-76
2023/01/29 02:17:34;;;;;;;30.00;15.02;;;;;;;-1.25;88.81;95368.44;4992061;28;20128;-76
2023/01/29 02:20:12;;;;;;;29.20;13.60;;;;;;;-1.17;88.83;95370.06;4987921;28;20041;-76
2023/01/29 02:23:08;;;;;;;30.33;14.18;;;;;;;-1.13;88.79;95363.47;5010498;28;20029;-76
2023/01/29 02:25:58;;;;;;;31.05;15.82;;;;;;;-1.08;88.54;95365.50;5011332;28;20034;-76
2023/01/29 02:28:31;;;;;;;28.60;14.68;;;;;;;-1.19;88.79;95366.84;4993780;28;20515;-76
2023/01/29 02:31:55;;;;;;;29.10;15.30;;;;;;;-1.26;88.98;95377.25;4993849;28;20034;-76
2023/01/29 02:37:54;;;;;;;34.40;15.45;;;;;;;-1.18;89.53;95378.88;5012081;28;20076;-74
2023/01/29 02:40:43;;;;;;;29.80;14.27;;;;;;;-1.38;89.45;95357.19;4994010;28;20034;-73
2023/01/29 02:43:26;;;;;;;34.72;15.57;;;;;;;-1.19;89.30;95387.66;4993348;28;20033;-74
2023/01/29 02:46:14;;;;;;;26.55;13.13;;;;;;;-1.20;88.77;95391.28;5011457;28;20065;-75
2023/01/29 02:48:47;;;;;;;25.98;14.05;;;;;;;-1.71;89.13;95320.66;5012042;28;20030;-78
2023/01/29 02:51:20;;;;;;;31.88;15.50;;;;;;;-1.25;89.57;95385.84;5011388;28;20029;-78
2023/01/29 02:54:19;;;;;;;33.10;15.95;;;;;;;-1.10;89.59;95391.72;5009790;28;20494;-78
2023/01/29 02:56:55;;;;;;;28.35;14.98;;;;;;;-1.08;89.18;95387.13;5010762;28;20034;-78
2023/01/29 02:59:34;;;;;;;27.15;14.13;;;;;;;-2.16;88.55;95252.69;5011180;28;20042;-78
2023/01/29 03:02:18;;;;;;;28.17;14.40;;;;;;;-1.37;89.52;95374.38;5010298;28;20459;-78
2023/01/29 03:04:51;;;;;;;28.48;13.80;;;;;;;-1.25;89.91;95388.47;5010358;28;20062;-78
2023/01/29 03:07:43;;;;;;;27.23;14.57;;;;;;;-1.62;90.12;95312.50;5010508;28;20029;-78
2023/01/29 03:10:21;;;;;;;25.30;14.15;;;;;;;-1.23;89.53;95365.66;5010864;28;20038;-78
2023/01/29 03:12:54;;;;;;;29.70;15.05;;;;;;;-1.53;89.56;95326.13;5010244;28;20137;-78
2023/01/29 03:15:25;;;;;;;30.77;15.10;;;;;;;-1.10;89.49;95383.91;5010797;28;20520;-78
2023/01/29 03:18:26;;;;;;;23.13;12.70;;;;;;;-1.23;89.47;95391.69;5010677;28;20480;-79
2023/01/29 03:21:02;;;;;;;31.80;15.25;;;;;;;-1.81;89.78;95297.59;4968430;28;20512;-78
2023/01/29 03:32:06;;;;;;;27.95;13.57;;;;;;;-1.06;89.17;95395.50;5010129;28;20032;-78
2023/01/29 03:34:56;;;;;;;28.13;14.45;;;;;;;-1.21;88.92;95384.47;4992247;28;20030;-78
2023/01/29 03:37:45;;;;;;;20.77;11.75;;;;;;;-1.46;88.94;95333.97;4998035;28;20468;-78
2023/01/29 03:40:11;;;;;;;23.30;12.38;;;;;;;-1.43;89.11;95336.94;4990455;28;20034;-79
2023/01/29 03:43:04;;;;;;;24.60;12.32;;;;;;;-1.11;88.34;95389.28;4972458;28;20489;-77
2023/01/29 03:45:35;;;;;;;24.38;12.45;;;;;;;-0.95;88.50;95392.34;4977703;28;20088;-78
2023/01/29 03:48:27;;;;;;;22.30;11.38;;;;;;;-1.05;88.31;95391.91;5010184;28;20057;-78
2023/01/29 03:51:00;;;;;;;24.48;12.85;;;;;;;-1.32;88.60;95346.00;5010138;28;20026;-79
2023/01/29 03:53:37;;;;;;;25.52;11.43;;;;;;;-0.95;88.60;95399.34;5009842;28;20069;-78
2023/01/29 03:56:47;;;;;;;33.83;16.48;;;;;;;-1.04;88.68;95390.91;5009581;28;20034;-78
2023/01/29 03:59:30;;;;;;;23.02;12.38;;;;;;;-1.68;88.69;95302.84;4991432;28;20037;-78
2023/01/29 04:02:02;;;;;;;24.85;13.18;;;;;;;-1.36;89.24;95366.41;4989879;28;20539;-78
2023/01/29 04:04:40;;;;;;;26.00;12.60;;;;;;;-1.46;89.86;95355.56;4983773;28;20041;-79
2023/01/29 04:07:16;;;;;;;20.15;11.80;;;;;;;-1.16;89.68;95395.09;4976748;28;20098;-78
2023/01/29 04:09:50;;;;;;;19.58;10.95;;;;;;;-1.13;89.60;95399.09;4990290;28;20036;-78
2023/01/29 04:12:23;;;;;;;29.70;13.05;;;;;;;-0.99;90.10;95403.38;4990058;28;20508;-78
2023/01/29 04:14:51;;;;;;;24.92;12.43;;;;;;;-1.61;89.46;95293.31;4972325;28;20080;-78
2023/01/29 04:17:28;;;;;;;18.42;10.70;;;;;;;-1.61;89.07;95321.91;4990294;28;20187;-78
2023/01/29 04:19:54;;;;;;;19.45;10.23;;;;;;;-1.12;89.53;95404.09;4979447;28;20038;-79
2023/01/29 04:22:34;;;;;;;18.52;11.07;;;;;;;-1.59;89.78;95327.69;5000578;28;20580;-78
2023/01/29 04:25:07;;;;;;;19.20;10.80;;;;;;;-1.23;89.63;95381.28;4999234;28;20037;-78
2023/01/29 04:27:56;;;;;;;19.55;10.70;;;;;;;-1.20;89.68;95404.28;4989481;28;20117;-78
2023/01/29 04:30:43;;;;;;;21.20;10.73;;;;;;;-1.21;89.64;95410.47;4989588;28;20401;-78
2023/01/29 04:33:39;;;;;;;23.25;10.25;;;;;;;-1.10;89.80;95422.13;4989415;28;20110;-78
2023/01/29 04:36:29;;;;;;;18.85;9.98;;;;;;;-1.54;89.01;95367.94;4989032;28;20042;-78
2023/01/29 04:39:16;;;;;;;22.05;10.57;;;;;;;-1.26;88.74;95415.47;4989966;28;20519;-78
2023/01/29 04:41:50;;;;;;;16.55;9.25;;;;;;;-1.52;88.93;95365.94;4989809;28;20038;-78
2023/01/29 04:44:37;;;;;;;18.02;9.35;;;;;;;-1.24;88.61;95422.09;4972223;28;20045;-78
2023/01/29 04:47:25;;;;;;;19.88;9.18;;;;;;;-1.52;88.50;95373.72;4978390;28;20038;-78
2023/01/29 04:50:21;;;;;;;17.05;9.18;;;;;;;-1.23;88.47;95415.91;4991687;28;20038;-78
2023/01/29 04:52:51;;;;;;;17.38;9.65;;;;;;;-1.30;88.14;95406.47;5008813;28;20022;-77
2023/01/29 04:55:24;;;;;;;19.70;9.75;;;;;;;-1.35;88.70;95411.44;5009715;28;20053;-78
2023/01/29 04:58:13;;;;;;;20.60;9.80;;;;;;;-1.22;88.97;95421.91;4991100;28;20116;-78
2023/01/29 05:00:42;;;;;;;16.85;9.15;;;;;;;-1.30;88.55;95428.09;4991778;28;20030;-78
2023/01/29 05:03:10;;;;;;;14.40;9.07;;;;;;;-1.23;88.65;95423.72;5008530;28;20022;-78
2023/01/29 05:05:40;;;;;;;20.67;11.13;;;;;;;-1.20;88.76;95428.50;4991547;28;20427;-78
2023/01/29 05:08:06;;;;;;;18.05;10.68;;;;;;;-1.22;89.09;95424.50;4990719;28;20038;-78
2023/01/29 05:10:33;;;;;;;19.45;10.20;;;;;;;-1.63;88.50;95375.09;5009464;28;20029;-78
2023/01/29 05:13:02;;;;;;;19.80;10.30;;;;;;;-1.45;89.23;95400.59;5009016;28;20037;-79
2023/01/29 05:15:39;;;;;;;23.17;11.38;;;;;;;-1.28;89.51;95423.47;4991372;28;20037;-78
2023/01/29 05:18:07;;;;;;;23.73;10.63;;;;;;;-1.65;88.88;95377.09;5011724;28;20080;-78
2023/01/29 05:20:36;;;;;;;23.27;11.18;;;;;;;-1.26;89.00;95429.28;5012323;28;20471;-79
2023/01/29 05:23:01;;;;;;;18.30;10.55;;;;;;;-1.72;89.38;95348.44;4994841;28;20034;-78
2023/01/29 05:25:31;;;;;;;17.55;10.23;;;;;;;-1.86;89.23;95335.59;5012686;28;20120;-78
2023/01/29 05:30:42;;;;;;;16.92;10.55;;;;;;;-1.37;88.86;95408.22;5012439;28;20041;-78
2023/01/29 05:33:17;;;;;;;25.92;11.45;;;;;;;-1.13;88.96;95435.53;4994709;28;20061;-79
2023/01/29 05:35:42;;;;;;;21.30;10.32;;;;;;;-1.05;88.84;95441.38;5012295;28;20092;-78
2023/01/29 05:38:08;;;;;;;19.17;9.63;;;;;;;-1.50;87.97;95397.75;5011989;28;20037;-78
2023/01/29 05:40:34;;;;;;;26.15;10.43;;;;;;;-1.08;87.76;95441.78;5012394;28;20092;-79
2023/01/29 05:43:00;;;;;;;19.92;10.07;;;;;;;-1.91;87.50;95289.38;4977882;28;20038;-78
2023/01/29 05:45:25;;;;;;;15.07;9.25;;;;;;;-1.20;88.17;95448.53;5012222;28;20539;-79
2023/01/29 05:47:58;;;;;;;19.58;10.13;;;;;;;-2.02;88.27;95301.13;5011541;28;20124;-78
2023/01/29 05:50:24;;;;;;;27.55;11.50;;;;;;;-1.11;88.73;95446.56;5011866;28;20041;-78
2023/01/29 05:52:56;;;;;;;17.55;10.07;;;;;;;-1.57;88.18;95375.13;5011897;28;20388;-78
2023/01/29 05:55:21;;;;;;;18.02;11.10;;;;;;;-1.68;88.67;95365.25;4994509;28;20535;-78
2023/01/29 05:57:46;;;;;;;22.20;11.82;;;;;;;-1.76;89.13;95373.25;5011588;28;20029;-78
2023/01/29 06:00:12;;;;;;;17.60;10.02;;;;;;;-1.53;89.05;95422.38;5012245;28;20037;-78
2023/01/29 06:02:38;;;;;;;19.73;10.65;;;;;;;-1.58;88.76;95388.31;4993801;28;20419;-78
2023/01/29 06:05:04;;;;;;;21.92;11.48;;;;;;;-1.78;88.89;95371.81;4993952;28;20136;-78
2023/01/29 06:07:29;;;;;;;19.58;10.63;;;;;;;-1.76;88.92;95373.25;5011743;28;20117;-78
2023/01/29 06:09:55;;;;;;;23.52;12.15;;;;;;;-1.26;89.17;95457.09;5011786;28;20038;-78
2023/01/29 06:12:20;;;;;;;21.17;11.55;;;;;;;-1.70;89.46;95388.06;5011921;28;20567;-78
2023/01/29 06:14:46;;;;;;;21.65;11.07;;;;;;;-1.45;89.73;95418.81;5011849;28;20049;-78
2023/01/29 06:17:11;;;;;;;24.08;11.80;;;;;;;-1.46;89.22;95409.41;5011996;28;20034;-79
2023/01/29 06:19:36;;;;;;;22.67;11.77;;;;;;;-1.59;89.48;95390.13;4976946;28;20029;-78
2023/01/29 06:22:02;;;;;;;22.73;11.82;;;;;;;-1.52;89.93;95404.94;4991931;28;20489;-78
2023/01/29 06:24:28;;;;;;;26.23;11.40;;;;;;;-1.74;89.34;95388.63;4992569;28;20030;-79
2023/01/29 06:26:53;;;;;;;21.40;11.18;;;;;;;-1.56;89.97;95433.16;5007785;28;20516;-78
2023/01/29 06:29:19;;;;;;;21.55;11.20;;;;;;;-1.97;90.07;95365.50;4990097;28;20101;-78
2023/01/29 06:31:44;;;;;;;22.88;12.27;;;;;;;-1.40;90.10;95476.25;4992234;28;20409;-78
2023/01/29 06:34:09;;;;;;;27.02;12.50;;;;;;;-1.36;90.82;95467.84;4992004;28;20101;-78
2023/01/29 06:36:35;;;;;;;25.52;12.55;;;;;;;-1.13;90.21;95479.78;4991623;28;20500;-79
2023/01/29 06:39:01;;;;;;;23.95;13.10;;;;;;;-1.65;90.52;95416.91;4991640;28;20035;-77
2023/01/29 06:41:27;;;;;;;28.23;13.45;;;;;;;-1.50;90.29;95408.97;4982253;28;20040;-79
2023/01/29 06:43:52;;;;;;;25.23;13.32;;;;;;;-1.19;90.09;95482.16;4993602;28;20431;-78
2023/01/29 06:46:18;;;;;;;26.15;13.70;;;;;;;-0.97;90.21;95495.06;4991365;28;20109;-78
2023/01/29 06:48:43;;;;;;;23.55;13.48;;;;;;;-1.41;89.88;95448.63;5005559;28;20044;-78
2023/01/29 06:51:10;;;;;;;26.25;14.25;;;;;;;-1.43;90.04;95430.59;5010851;28;20037;-78
2023/01/29 06:53:37;;;;;;;26.92;12.90;;;;;;;-0.90;89.88;95521.94;5010520;28;20030;-78
2023/01/29 06:56:03;;;;;;;26.73;13.70;;;;;;;-1.57;89.93;95426.34;4993190;28;20563;-78
2023/01/29 06:58:29;;;;;;;30.60;14.98;;;;;;;-1.15;89.70;95473.97;4991149;28;20038;-78
2023/01/29 07:01:05;;;;;;;33.97;15.93;;;;;;;-0.93;89.60;95504.13;4988657;28;20036;-78
2023/01/29 07:03:31;;;;;;;36.08;15.68;;;;;;;-0.75;89.86;95511.38;4973595;28;20051;-78
2023/01/29 07:05:56;;;;;;;29.50;14.88;;;;;;;-0.86;89.84;95521.38;5011105;28;20111;-77
2023/01/29 07:08:22;;;;;;;34.55;16.77;;;;;;;-0.91;89.67;95507.31;4993113;28;20092;-77
2023/01/29 07:10:48;;;;;;;30.10;15.43;;;;;;;-1.13;89.26;95485.78;5010395;28;20552;-78
2023/01/29 07:13:14;;;;;;;27.98;14.07;;;;;;;-1.65;88.99;95405.69;4992839;28;20504;-78
2023/01/29 07:15:39;;;;;;;41.65;16.35;;;;;;;-1.35;89.25;95466.88;5010766;28;20133;-78
2023/01/29 07:18:10;;;;;;;28.52;16.30;;;;;;;-0.88;89.43;95536.38;5009984;28;20030;-79
2023/01/29 07:20:36;;;;;;;;;;;;;;;-0.82;89.13;95530.38;5003644;28;20863;-78
2023/01/29 07:23:02;;;;;;;31.02;15.15;;;;;;;-1.59;88.91;95420.50;4992413;28;19921;-78
2023/01/29 07:25:29;;;;;;;31.10;17.23;;;;;;;-1.24;88.89;95463.72;5010853;28;20029;-78
2023/01/29 07:27:55;;;;;;;32.25;15.30;;;;;;;-0.72;88.89;95537.03;4992535;28;20081;-78
2023/01/29 07:30:20;;;;;;;36.20;16.15;;;;;;;-0.62;88.60;95540.91;4992745;28;20758;-78
2023/01/29 07:32:46;;;;;;;26.95;14.98;;;;;;;-1.29;87.64;95470.50;5009504;28;20038;-78
2023/01/29 07:35:11;;;;;;;35.30;15.80;;;;;;;-1.16;88.16;95475.78;4992220;28;20420;-78
2023/01/29 07:37:36;;;;;;;24.45;13.85;;;;;;;-1.44;88.13;95438.59;5006312;28;20378;-78
2023/01/29 07:40:04;;;;;;;28.25;14.80;;;;;;;-1.36;88.19;95439.25;4991033;28;20026;-78
2023/01/29 07:42:29;;;;;;;27.52;14.32;;;;;;;-0.87;88.09;95511.94;4990426;28;20408;-79
2023/01/29 07:44:55;;;;;;;30.60;15.10;;;;;;;-0.98;87.38;95506.47;4992095;28;20034;-79
2023/01/29 07:47:20;;;;;;;26.98;14.32;;;;;;;-1.33;88.06;95430.25;4992023;28;20041;-79
2023/01/29 07:49:45;;;;;;;26.48;13.82;;;;;;;-1.29;87.15;95460.09;5009850;28;20103;-78
2023/01/29 07:52:11;;;;;;;31.58;15.00;;;;;;;-1.39;88.42;95465.66;4989856;28;20030;-78
2023/01/29 07:54:36;;;;;;;24.75;13.57;;;;;;;-0.93;88.44;95566.59;5003062;28;20068;-78
2023/01/29 07:57:02;;;;;;;28.42;14.27;;;;;;;-0.90;89.40;95550.56;4992070;28;20033;-78
2023/01/29 07:59:27;;;;;;;29.58;15.63;;;;;;;-1.22;89.52;95515.59;5010113;28;20068;-79
2023/01/29 08:01:52;;;;;;;30.05;15.60;;;;;;;-0.91;90.10;95557.59;4991887;28;20037;-78
2023/01/29 08:04:18;;;;;;;32.45;16.92;;;;;;;-0.85;90.12;95536.00;5009644;28;20160;-78
2023/01/29 08:06:43;;;;;;;27.80;15.75;;;;;;;-0.86;90.17;95560.44;4992089;28;20029;-78
2023/01/29 08:09:09;;;;;;;31.77;17.10;;;;;;;-1.61;89.96;95435.53;5009933;28;20469;-78
2023/01/29 08:11:35;;;;;;;33.35;16.17;;;;;;;-0.93;89.93;95540.56;5010025;28;20057;-78
2023/01/29 08:14:00;;;;;;;27.77;15.05;;;;;;;-0.86;89.45;95562.22;5008691;28;20069;-78
2023/01/29 08:16:26;;;;;;;32.08;16.20;;;;;;;-1.75;89.44;95415.63;5005901;28;20042;-79
2023/01/29 08:18:51;;;;;;;31.83;15.95;;;;;;;-1.20;89.01;95524.00;4987182;28;20567;-78
2023/01/29 08:21:17;;;;;;;35.38;18.45;;;;;;;-1.53;88.64;95450.19;5009562;28;20026;-78
2023/01/29 08:23:42;;;;;;;32.65;15.68;;;;;;;-1.17;88.02;95523.63;5009169;28;20018;-79
2023/01/29 08:26:07;;;;;;;34.42;16.98;;;;;;;-0.81;88.57;95565.84;5009080;28;20495;-78
2023/01/29 08:28:34;;;;;;;29.73;16.20;;;;;;;-1.89;87.60;95393.94;4984560;28;20053;-79
2023/01/29 08:31:00;;;;;;;32.33;16.67;;;;;;;-0.79;87.69;95568.28;4989976;28;20077;-78
2023/01/29 08:33:27;;;;;;;29.00;14.18;;;;;;;-0.79;86.55;95579.50;4981657;28;20136;-78
2023/01/29 08:35:53;;;;;;;29.02;14.25;;;;;;;-0.78;87.10;95577.69;4991715;28;20026;-77
2023/01/29 08:38:19;;;;;;;30.80;16.02;;;;;;;-1.08;86.91;95513.84;5009561;28;20097;-79
2023/01/29 08:40:44;;;;;;;33.40;15.23;;;;;;;-0.71;86.84;95568.09;4991518;28;20113;-78
2023/01/29 08:43:11;;;;;;;26.42;14.88;;;;;;;-1.16;85.84;95499.22;5008359;28;20324;-78
2023/01/29 08:45:42;;;;;;;29.55;14.55;;;;;;;-0.61;85.82;95580.78;5009454;28;20433;-78
2023/01/29 08:48:08;;;;;;;30.77;14.43;;;;;;;-0.95;86.02;95538.16;4974797;28;20104;-78
2023/01/29 08:50:34;;;;;;;31.95;17.05;;;;;;;-0.61;86.20;95591.97;4989845;28;20026;-78
2023/01/29 08:53:06;;;;;;;31.67;16.63;;;;;;;-0.51;85.79;95608.06;4994224;28;20049;-79
2023/01/29 08:55:31;;;;;;;28.95;15.95;;;;;;;-0.66;85.84;95599.56;4995199;28;20393;-77
2023/01/29 08:57:57;;;;;;;35.58;17.05;;;;;;;-0.90;86.31;95548.78;4995567;28;20056;-78
2023/01/29 09:00:22;;;;;;;30.38;14.95;;;;;;;-1.03;85.54;95553.94;4995215;28;20095;-79
2023/01/29 09:02:48;;;;;;;32.17;16.02;;;;;;;-0.53;86.23;95598.81;4994809;28;20033;-78
2023/01/29 09:05:13;;;;;;;31.40;16.05;;;;;;;-0.37;85.53;95608.91;5012530;28;20054;-78
2023/01/29 09:07:39;;;;;;;33.50;15.18;;;;;;;-0.83;84.54;95575.66;4995381;28;20026;-78
2023/01/29 09:10:04;;;;;;;33.78;16.25;;;;;;;-0.61;84.75;95583.38;5012919;28;20038;-78
2023/01/29 09:12:30;;;;;;;36.05;16.52;;;;;;;-0.54;84.68;95605.06;5012272;28;20034;-78
2023/01/29 09:14:55;;;;;;;31.85;16.60;;;;;;;-0.50;84.88;95601.03;4982872;28;20034;-78
2023/01/29 09:17:21;;;;;;;33.17;16.38;;;;;;;-0.86;84.48;95537.00;4993409;28;20042;-78
2023/01/29 09:19:46;;;;;;;33.15;17.65;;;;;;;-0.64;85.23;95555.09;4992817;28;20039;-78
2023/01/29 09:22:11;;;;;;;33.53;17.38;;;;;;;-0.67;84.69;95550.28;4992251;28;20038;-79
2023/01/29 09:24:37;;;;;;;36.25;18.98;;;;;;;-0.45;84.94;95576.00;4992555;28;20049;-78
2023/01/29 09:27:03;;;;;;;28.25;14.73;;;;;;;-0.97;83.71;95514.09;4993022;28;20780;-78
2023/01/29 09:29:29;;;;;;;31.20;15.90;;;;;;;-0.96;84.32;95539.13;4992692;28;20415;-77
2023/01/29 09:31:54;;;;;;;40.88;16.13;;;;;;;-0.62;84.04;95584.38;5011929;28;20034;-78
2023/01/29 09:34:20;;;;;;;32.35;16.67;;;;;;;-1.11;84.68;95528.06;5012525;28;20146;-78
2023/01/29 09:36:45;;;;;;;31.05;15.43;;;;;;;-1.13;84.43;95531.84;5011735;28;20029;-79
2023/01/29 09:39:10;;;;;;;33.67;17.65;;;;;;;-1.12;84.56;95516.03;5012488;28;20033;-78
2023/01/29 09:41:50;;;;;;;31.40;17.05;;;;;;;-0.87;85.01;95545.00;4994737;28;20064;-78
2023/01/29 09:44:47;;;;;;;43.65;17.92;;;;;;;-0.90;84.57;95521.94;4992354;28;20516;-78
2023/01/29 09:47:15;;;;;;;28.90;15.63;;;;;;;-1.18;83.76;95485.56;4986546;28;20042;-78
2023/01/29 09:49:47;;;;;;;35.20;18.00;;;;;;;-0.92;84.38;95495.31;4994330;28;20535;-78
2023/01/29 09:52:21;;;;;;;;;;;;;;;-0.32;84.57;95585.69;4994354;28;20530;-78
2023/01/29 09:54:49;;;;;;;27.65;15.13;;;;;;;-0.41;83.42;95584.25;5012231;28;20360;-78
2023/01/29 09:57:23;;;;;;;31.38;14.70;;;;;;;-0.48;83.95;95580.81;5011598;28;20038;-79
2023/01/29 09:59:49;;;;;;;33.58;15.80;;;;;;;-0.56;84.04;95581.78;5012023;28;20041;-79
2023/01/29 10:02:17;;;;;;;31.60;16.20;;;;;;;-0.58;84.87;95583.78;5010940;28;20034;-78
2023/01/29 10:05:15;;;;;;;35.70;16.23;;;;;;;-0.44;84.07;95582.84;5010591;28;20050;-78
2023/01/29 10:08:15;;;;;;;38.33;18.27;;;;;;;-0.48;83.80;95580.81;4993867;28;20052;-78
2023/01/29 10:10:50;;;;;;;33.08;15.95;;;;;;;-0.62;84.17;95582.56;4993870;28;20134;-78
2023/01/29 10:13:18;;;;;;;32.67;16.00;;;;;;;-0.67;83.86;95574.53;4993526;28;20416;-78
2023/01/29 10:16:05;;;;;;;34.30;16.00;;;;;;;-0.60;84.55;95569.34;4994059;28;20456;-78
2023/01/29 10:18:37;;;;;;;34.67;18.02;;;;;;;-0.60;84.98;95571.94;5011427;28;20038;-78
2023/01/29 10:21:20;;;;;;;41.72;18.13;;;;;;;-0.45;85.02;95562.97;4993843;28;20456;-78
2023/01/29 10:23:47;;;;;;;38.90;19.33;;;;;;;-0.42;84.96;95564.41;5011263;28;20072;-78
2023/01/29 10:26:13;;;;;;;31.70;17.05;;;;;;;-0.81;83.83;95511.16;4992190;28;20026;-78
2023/01/29 10:28:46;;;;;;;39.10;19.00;;;;;;;-0.43;84.11;95563.59;5004464;28;20030;-78
2023/01/29 10:31:20;;;;;;;36.63;17.75;;;;;;;-0.92;84.14;95483.09;4993629;28;20037;-79
2023/01/29 10:33:52;;;;;;;38.10;19.25;;;;;;;-0.58;84.17;95530.88;4996143;28;20037;-78
2023/01/29 10:36:45;;;;;;;33.97;17.60;;;;;;;-0.45;84.64;95555.16;4995435;28;20496;-78
2023/01/29 10:39:19;;;;;;;38.05;18.45;;;;;;;-0.89;84.42;95471.47;4970069;28;20129;-78
2023/01/29 10:41:57;;;;;;;32.63;17.33;;;;;;;-0.48;83.95;95550.34;4981240;28;20037;-78
2023/01/29 10:44:28;;;;;;;40.22;20.17;;;;;;;-0.36;84.26;95550.59;5007370;28;20038;-78
2023/01/29 10:47:13;;;;;;;54.67;21.27;;;;;;;-0.27;84.42;95549.41;4975671;28;20031;-78
2023/01/29 10:50:15;;;;;;;37.78;18.67;;;;;;;-0.75;84.07;95496.56;5005592;28;20125;-78
2023/01/29 10:52:51;;;;;;;41.65;19.48;;;;;;;-0.51;84.11;95557.75;4991257;28;20539;-78
2023/01/29 10:55:44;;;;;;;35.15;17.77;;;;;;;-0.51;84.35;95540.31;4991916;28;20037;-79
2023/01/29 10:58:19;;;;;;;41.28;20.08;;;;;;;-0.39;84.89;95532.75;4976809;28;20080;-78
2023/01/29 11:00:44;;;;;;;39.85;20.05;;;;;;;-0.60;84.55;95502.41;4980820;28;20034;-78
2023/01/29 11:03:16;;;;;;;41.47;20.00;;;;;;;-0.58;83.92;95507.44;4991983;28;20041;-78
2023/01/29 11:05:54;;;;;;;39.85;20.33;;;;;;;-0.50;84.29;95531.50;4978748;28;20121;-79
2023/01/29 11:08:23;;;;;;;42.05;21.75;;;;;;;-0.41;85.08;95535.53;4991304;28;20093;-78
2023/01/29 11:10:57;;;;;;;45.95;21.48;;;;;;;-0.22;84.94;95535.78;4973682;28;20035;-79
2023/01/29 11:13:33;;;;;;;46.45;21.30;;;;;;;-0.25;84.55;95523.16;4984344;28;20034;-78
2023/01/29 11:15:59;;;;;;;41.30;20.30;;;;;;;-0.13;84.69;95539.81;4981911;28;20117;-79
2023/01/29 11:18:24;;;;;;;37.50;18.73;;;;;;;-0.59;83.81;95490.19;4972963;28;20118;-78
2023/01/29 11:21:00;;;;;;;40.10;19.80;;;;;;;-0.86;83.70;95440.66;5000711;28;20041;-78
2023/01/29 11:23:29;;;;;;;41.80;20.73;;;;;;;-0.40;84.22;95494.66;4984800;28;20117;-78
2023/01/29 11:25:57;;;;;;;45.50;21.73;;;;;;;-0.12;84.67;95520.56;4990808;28;20030;-79
2023/01/29 11:28:43;;;;;;;42.55;20.98;;;;;;;-0.19;84.01;95523.16;4999026;28;20503;-79
2023/01/29 11:31:16;;;;;;;46.80;20.95;;;;;;;-0.27;84.35;95525.16;4984584;28;20030;-79
2023/01/29 11:33:42;;;;;;;42.45;20.63;;;;;;;-0.91;84.43;95426.59;4995604;28;20041;-79
2023/01/29 11:36:21;;;;;;;45.75;20.55;;;;;;;-0.80;84.05;95413.00;5003923;28;20084;-79
2023/01/29 11:39:11;;;;;;;46.25;19.58;;;;;;;-0.68;83.35;95444.47;4990061;28;20031;-78
2023/01/29 11:42:03;;;;;;;39.95;19.67;;;;;;;-0.55;84.23;95470.56;4998922;28;20088;-79
2023/01/29 11:44:38;;;;;;;42.08;20.67;;;;;;;-0.37;83.69;95502.06;4955367;28;20424;-79
2023/01/29 11:47:15;;;;;;;39.60;20.48;;;;;;;-0.34;84.12;95490.44;4994472;28;20026;-79
2023/01/29 11:49:47;;;;;;;43.15;20.85;;;;;;;-0.44;84.08;95490.81;4983461;28;20057;-79
2023/01/29 11:52:15;;;;;;;46.58;22.27;;;;;;;-0.51;84.72;95476.97;4987004;28;20389;-79
2023/01/29 11:54:50;;;;;;;47.83;20.98;;;;;;;-0.66;84.32;95432.88;4987020;28;20034;-79
2023/01/29 11:57:29;;;;;;;43.30;20.98;;;;;;;-0.33;84.17;95495.47;4989838;28;20105;-79
2023/01/29 12:00:00;;;;;;;40.28;19.77;;;;;;;-0.47;83.50;95446.94;4972138;28;20041;-79
2023/01/29 12:02:31;;;;;;;41.58;18.83;;;;;;;-0.60;83.67;95431.28;4972267;28;20074;-79
2023/01/29 12:05:20;;;;;;;40.75;19.65;;;;;;;-0.73;83.57;95402.59;4974561;28;20054;-80
2023/01/29 12:07:49;;;;;;;43.45;19.77;;;;;;;-0.35;83.67;95466.19;4992934;28;20169;-80
2023/01/29 12:10:35;;;;;;;45.60;20.63;;;;;;;-0.53;83.72;95421.66;4998155;28;20041;-80
2023/01/29 12:13:18;;;;;;;43.72;20.58;;;;;;;-0.18;83.29;95483.06;4988014;28;20036;-79